Time;durP1;ratioP1;P1;durP2;ratioP2;P2;SDS_P1;SDS_P2;PMS_P1;PMS_P2;Temp;Humidity;BMP_temperature;BMP_pressure;BME280_temperature;BME280_humidity;BME280_pressure;Samples;Min_cycle;Max_cycle;Signal;HPM_P1;HPM_P2
2023/01/27 00:09:40;;;;;;;34.70;23.00;;;;;;;-1.17;87.50;99755.52;449596;1252;142919;-61
2023/01/27 00:19:46;;;;;;;40.90;25.90;;;;;;;-1.18;87.45;99750.20;434225;1253;143435;-60
2023/01/27 00:29:52;;;;;;;41.00;24.60;;;;;;;-1.19;87.45;99751.77;433213;1255;143072;-60
2023/01/27 00:39:57;;;;;;;;;;;;;;;-1.23;87.31;99760.40;449702;1251;142745;-59
2023/01/27 00:50:02;;;;;;;38.50;24.20;;;;;;;-1.24;87.52;99767.30;450697;1251;129019;-60
2023/01/27 01:00:10;;;;;;;39.20;26.00;;;;;;;-1.20;87.78;99779.44;450465;1251;143322;-59
2023/01/27 01:10:17;;;;;;;40.20;26.10;;;;;;;-1.18;87.73;99781.98;448794;1254;142780;-58
2023/01/27 01:20:24;;;;;;;41.10;24.70;;;;;;;-1.18;87.77;99784.20;450354;1251;143358;-58
2023/01/27 01:30:30;;;;;;;37.70;26.80;;;;;;;-1.19;87.88;99780.63;449692;1251;145326;-58
2023/01/27 01:40:39;;;;;;;49.10;29.80;;;;;;;-1.20;88.45;99771.88;450503;1253;144220;-58
2023/01/27 01:50:50;;;;;;;48.00;30.70;;;;;;;-1.23;88.92;99767.62;450435;1251;142935;-58
2023/01/27 02:00:56;;;;;;;50.50;30.80;;;;;;;-1.23;88.93;99762.81;449603;1252;143285;-59
2023/01/27 02:11:02;;;;;;;49.00;29.50;;;;;;;-1.27;89.25;99764.73;448321;1252;143364;-59
2023/01/27 02:21:09;;;;;;;46.50;28.30;;;;;;;-1.32;89.32;99765.16;448140;1251;143734;-60
2023/01/27 02:31:14;;;;;;;38.80;25.90;;;;;;;-1.36;89.48;99772.59;449695;1251;142507;-61
2023/01/27 02:41:25;;;;;;;39.70;24.20;;;;;;;-1.37;89.58;99781.70;450403;1251;143494;-60
2023/01/27 02:51:31;;;;;;;38.10;21.20;;;;;;;-1.33;89.65;99787.68;449618;1251;144451;-60
2023/01/27 03:01:37;;;;;;;38.00;24.90;;;;;;;-1.29;89.92;99785.05;450470;1251;143364;-61
2023/01/27 03:22:06;;;;;;;37.00;21.90;;;;;;;-1.28;90.34;99792.59;449469;1251;143648;-60
2023/01/27 03:32:11;;;;;;;45.30;26.40;;;;;;;-1.35;90.53;99789.75;450338;1251;145707;-60
2023/01/27 03:53:01;;;;;;;39.20;23.90;;;;;;;-1.36;90.94;99794.05;450132;1254;208714;-60
2023/01/27 04:13:31;;;;;;;45.70;25.80;;;;;;;-1.34;91.47;99798.67;448541;1255;196860;-60
2023/01/27 04:23:37;;;;;;;49.70;24.90;;;;;;;-1.37;92.30;99795.79;450349;1251;143413;-59
2023/01/27 04:33:42;;;;;;;55.60;27.80;;;;;;;-1.41;93.37;99795.65;449666;1253;143961;-60
2023/01/27 04:43:49;;;;;;;58.30;30.20;;;;;;;-1.45;93.56;99801.36;450408;1251;143172;-59
2023/01/27 04:53:53;;;;;;;;;;;;;;;-1.50;94.03;99796.80;441622;1251;142968;-60
2023/01/27 05:03:59;;;;;;;54.30;30.80;;;;;;;-1.52;94.21;99798.52;449860;1252;134052;-60
2023/01/27 05:14:05;;;;;;;54.20;28.90;;;;;;;-1.53;94.48;99808.49;442338;1251;142421;-59
2023/01/27 05:24:11;;;;;;;55.10;31.40;;;;;;;-1.54;94.45;99812.46;441366;1255;142378;-59
2023/01/27 05:34:17;;;;;;;51.20;29.00;;;;;;;-1.58;94.69;99820.39;441552;1251;145675;-60
2023/01/27 05:44:23;;;;;;;54.80;28.90;;;;;;;-1.58;94.92;99828.64;446770;1251;142463;-58
2023/01/27 05:54:29;;;;;;;65.00;32.70;;;;;;;-1.62;95.05;99840.36;449501;1251;143617;-59
2023/01/27 06:04:35;;;;;;;57.80;28.50;;;;;;;-1.66;95.20;99839.20;450328;1251;142713;-60
2023/01/27 06:14:41;;;;;;;67.10;32.30;;;;;;;-1.70;95.30;99855.20;450134;1251;141831;-59
2023/01/27 06:24:47;;;;;;;57.60;30.50;;;;;;;-1.71;95.71;99863.62;449409;1251;143610;-59
2023/01/27 06:34:52;;;;;;;60.80;30.60;;;;;;;-1.66;95.79;99872.32;450213;1251;142687;-59
2023/01/27 06:44:58;;;;;;;57.40;32.60;;;;;;;-1.64;96.08;99882.44;450263;1251;142392;-59
2023/01/27 06:55:05;;;;;;;59.60;31.40;;;;;;;-1.62;96.07;99887.39;449248;1251;142906;-59
2023/01/27 07:05:12;;;;;;;60.20;32.90;;;;;;;-1.60;96.68;99896.30;450228;1251;142336;-60
2023/01/27 07:15:18;;;;;;;57.30;30.70;;;;;;;-1.50;97.02;99896.56;450311;1251;142971;-60
2023/01/27 07:25:24;;;;;;;59.20;33.10;;;;;;;-1.39;97.07;99897.83;449747;1251;211781;-60
2023/01/27 07:35:30;;;;;;;61.50;33.10;;;;;;;-1.36;97.07;99902.44;450169;1251;142925;-61
2023/01/27 07:45:35;;;;;;;54.60;32.40;;;;;;;-1.28;97.01;99905.10;449519;1251;143985;-60
2023/01/27 07:55:41;;;;;;;64.30;31.80;;;;;;;-1.22;97.01;99897.82;450229;1251;141923;-60
2023/01/27 08:05:47;;;;;;;59.50;30.20;;;;;;;-1.17;96.99;99906.19;450186;1251;143091;-59
2023/01/27 08:15:58;;;;;;;52.90;28.00;;;;;;;-1.18;97.09;99905.69;449492;1251;143851;-59
2023/01/27 08:26:06;;;;;;;50.20;23.80;;;;;;;-1.20;97.24;99910.51;450245;1251;143510;-59
2023/01/27 08:36:14;;;;;;;31.80;18.70;;;;;;;-1.20;96.66;99919.97;450171;1251;144961;-60
2023/01/27 08:46:19;;;;;;;28.60;17.10;;;;;;;-1.12;95.76;99921.42;449404;1251;145640;-60
2023/01/27 08:56:25;;;;;;;32.00;17.40;;;;;;;-0.88;95.06;99923.90;450303;1251;143786;-61
2023/01/27 09:06:31;;;;;;;25.60;16.20;;;;;;;-0.59;94.72;99930.62;449459;1251;143665;-60
2023/01/27 09:16:37;;;;;;;28.60;18.10;;;;;;;-0.44;93.91;99942.64;450207;1251;142696;-61
2023/01/27 09:26:43;;;;;;;29.20;17.00;;;;;;;-0.55;93.95;99949.84;449338;1251;144140;-59
2023/01/27 09:36:55;;;;;;;32.00;16.60;;;;;;;-0.60;93.93;99959.70;438219;1252;142683;-59
2023/01/27 09:47:20;;;;;;;33.10;19.20;;;;;;;-0.52;94.00;99961.48;437594;1251;146063;-61
2023/01/27 09:57:35;;;;;;;35.40;20.30;;;;;;;-0.55;94.44;99965.48;449372;1251;144222;-59
2023/01/27 10:08:02;;;;;;;33.50;18.80;;;;;;;-0.55;94.32;99970.63;450296;1251;143045;-60
2023/01/27 10:18:21;;;;;;;25.70;16.00;;;;;;;-0.47;94.37;99968.30;450248;1251;141859;-61
2023/01/27 10:28:30;;;;;;;28.00;15.30;;;;;;;-0.22;94.00;99976.77;448440;1251;215026;-60
2023/01/27 10:38:45;;;;;;;24.00;15.10;;;;;;;-0.03;92.99;99967.20;450224;1251;144487;-61
2023/01/27 10:48:56;;;;;;;25.00;14.40;;;;;;;0.23;92.04;99965.61;449525;1251;144474;-60
2023/01/27 10:59:10;;;;;;;25.30;14.10;;;;;;;0.57;91.15;99969.38;450289;1251;186395;-59
2023/01/27 11:09:25;;;;;;;27.30;16.10;;;;;;;0.73;89.72;99967.74;450316;1251;143740;-60
2023/01/27 11:19:40;;;;;;;24.80;15.60;;;;;;;0.85;89.46;99956.67;449867;1251;214260;-60
2023/01/27 11:29:53;;;;;;;28.20;16.00;;;;;;;1.24;89.31;99940.42;446778;1251;143457;-60
2023/01/27 11:40:00;;;;;;;35.90;19.50;;;;;;;1.53;88.55;99936.71;449301;1251;143670;-59
2023/01/27 11:50:07;;;;;;;29.10;17.60;;;;;;;1.34;87.83;99934.02;450280;1251;142070;-61
2023/01/27 12:00:24;;;;;;;34.10;21.20;;;;;;;1.09;87.77;99929.16;450258;1251;142440;-59
2023/01/27 12:10:33;;;;;;;39.20;20.70;;;;;;;0.78;87.94;99940.61;449909;1251;142834;-60
2023/01/27 12:20:42;;;;;;;31.40;17.70;;;;;;;0.60;88.11;99945.22;450294;1252;143013;-61
2023/01/27 12:30:48;;;;;;;34.90;20.80;;;;;;;0.62;87.54;99948.98;445016;1251;142258;-61
2023/01/27 12:40:59;;;;;;;31.90;18.70;;;;;;;0.54;87.97;99944.45;450229;1252;142799;-60
2023/01/27 12:51:16;;;;;;;30.70;19.40;;;;;;;0.56;87.90;99936.16;450357;1251;142236;-61
2023/01/27 13:01:32;;;;;;;37.60;19.80;;;;;;;0.40;87.93;99933.33;449533;1251;218463;-60
2023/01/27 13:11:41;;;;;;;36.60;21.30;;;;;;;0.30;87.54;99943.46;450300;1251;144272;-60
2023/01/27 13:21:53;;;;;;;47.50;23.70;;;;;;;0.20;87.53;99946.71;445788;1252;143036;-60
2023/01/27 13:32:06;;;;;;;41.90;24.00;;;;;;;0.16;88.07;99950.22;450260;1251;141686;-61
2023/01/27 13:42:19;;;;;;;39.30;23.20;;;;;;;0.21;88.40;99964.11;450181;1251;142945;-60
2023/01/27 13:52:26;;;;;;;43.30;24.20;;;;;;;0.28;88.38;99968.46;449837;1251;141333;-61
2023/01/27 14:03:06;;;;;;;33.20;19.30;;;;;;;0.22;87.88;99974.59;442260;1251;141486;-60
2023/01/27 14:13:29;;;;;;;32.80;20.30;;;;;;;0.09;87.67;99983.88;449548;1251;141815;-60
2023/01/27 14:23:44;;;;;;;34.70;21.50;;;;;;;0.02;87.78;99979.02;450298;1251;141834;-59
2023/01/27 14:34:02;;;;;;;38.40;22.90;;;;;;;-0.02;88.26;99981.29;449379;1251;142932;-59
2023/01/27 14:44:19;;;;;;;46.40;25.80;;;;;;;-0.05;89.26;99989.79;450232;1251;143201;-60
2023/01/27 14:54:32;;;;;;;;;;;;;;;-0.12;89.51;99983.86;449532;1251;143675;-59
2023/01/27 15:04:51;;;;;;;34.90;21.20;;;;;;;-0.17;89.55;99986.48;450359;1251;128953;-61
2023/01/27 15:15:21;;;;;;;33.20;21.10;;;;;;;-0.30;89.37;99993.89;450007;1252;142513;-60
2023/01/27 15:25:34;;;;;;;38.90;24.40;;;;;;;-0.36;89.81;99991.39;437209;1251;143732;-59
2023/01/27 15:35:41;;;;;;;38.50;22.80;;;;;;;-0.40;90.27;99995.56;447191;1251;146566;-62
2023/01/27 15:45:47;;;;;;;36.80;22.90;;;;;;;-0.46;90.86;99999.41;449410;1251;143113;-62
2023/01/27 15:55:55;;;;;;;39.80;24.90;;;;;;;-0.49;91.21;100004.96;450195;1251;143148;-62
2023/01/27 16:06:08;;;;;;;40.90;26.30;;;;;;;-0.51;91.69;100013.59;450083;1252;144654;-62
2023/01/27 16:16:34;;;;;;;42.30;24.20;;;;;;;-0.51;92.15;100016.52;449342;1251;144579;-62
2023/01/27 16:26:45;;;;;;;38.20;23.30;;;;;;;-0.56;92.19;100014.34;450200;1251;143900;-62
2023/01/27 16:37:03;;;;;;;40.90;24.40;;;;;;;-0.62;92.51;100022.14;449385;1252;143524;-62
2023/01/27 16:47:21;;;;;;;40.70;26.00;;;;;;;-0.66;92.96;100020.29;450240;1251;143264;-62
2023/01/27 16:57:34;;;;;;;43.30;26.20;;;;;;;-0.70;93.09;100026.86;449381;1252;142591;-61
2023/01/27 17:07:39;;;;;;;43.80;26.40;;;;;;;-0.69;93.57;100027.20;450072;1252;142742;-61
2023/01/27 17:17:46;;;;;;;44.20;27.10;;;;;;;-0.68;93.68;100026.49;450099;1251;144079;-61
2023/01/27 17:27:52;;;;;;;44.10;26.00;;;;;;;-0.68;94.03;100031.48;449670;1252;143207;-61
2023/01/27 17:38:12;;;;;;;41.80;26.60;;;;;;;-0.71;94.25;100041.30;450378;1252;143967;-61
2023/01/27 17:48:18;;;;;;;43.30;27.50;;;;;;;-0.73;94.49;100045.45;450425;1252;143344;-61
2023/01/27 17:58:27;;;;;;;39.00;24.90;;;;;;;-0.77;94.21;100050.83;449784;1252;200114;-61
2023/01/27 18:08:36;;;;;;;42.50;24.30;;;;;;;-0.80;94.06;100053.27;444392;1252;147714;-62
2023/01/27 18:18:42;;;;;;;34.20;21.90;;;;;;;-0.81;94.21;100062.03;445912;1252;144497;-61
2023/01/27 18:28:49;;;;;;;;;;;;;;;-0.82;94.54;100065.14;435384;1251;143345;-62
2023/01/27 18:38:55;;;;;;;44.40;24.70;;;;;;;-0.86;94.46;100070.17;445675;1251;132057;-61
2023/01/27 18:49:01;;;;;;;32.70;19.60;;;;;;;-0.86;94.60;100083.06;449397;1251;142744;-61
2023/01/27 18:59:12;;;;;;;34.60;20.80;;;;;;;-0.88;94.53;100089.09;450195;1252;145097;-61
2023/01/27 19:09:18;;;;;;;43.10;24.00;;;;;;;-0.89;94.71;100095.66;450243;1251;143402;-61
2023/01/27 19:19:24;;;;;;;32.90;19.00;;;;;;;-0.90;94.64;100097.70;449709;1251;211717;-61
2023/01/27 19:29:30;;;;;;;42.30;22.00;;;;;;;-0.85;94.91;100103.16;449071;1253;154561;-62
2023/01/27 19:39:36;;;;;;;42.20;21.70;;;;;;;-0.83;94.96;100106.58;437931;1251;146147;-61
2023/01/27 19:49:42;;;;;;;39.50;20.50;;;;;;;-0.88;95.13;100112.31;450247;1251;143768;-61
2023/01/27 19:59:48;;;;;;;41.70;22.40;;;;;;;-0.88;95.04;100123.48;446399;1251;143915;-62
2023/01/27 20:09:54;;;;;;;38.40;22.20;;;;;;;-0.86;95.33;100131.55;449568;1251;145731;-62
2023/01/27 20:20:00;;;;;;;39.00;22.30;;;;;;;-0.85;95.58;100139.27;450262;1251;145686;-61
2023/01/27 20:30:08;;;;;;;32.60;19.20;;;;;;;-0.82;95.54;100151.45;450211;1251;143894;-61
2023/01/27 20:40:17;;;;;;;25.10;17.50;;;;;;;-0.88;95.79;100151.50;447483;1251;199227;-65
2023/01/27 20:50:23;;;;;;;26.40;18.80;;;;;;;-0.93;95.93;100152.23;450219;1251;197001;-63
2023/01/27 21:00:31;;;;;;;26.70;18.20;;;;;;;-0.97;96.13;100151.23;449437;1252;143253;-62
2023/01/27 21:10:37;;;;;;;33.50;21.10;;;;;;;-0.98;96.24;100145.73;450257;1251;143085;-61
2023/01/27 21:20:48;;;;;;;30.30;19.00;;;;;;;-0.99;96.26;100143.67;450272;1254;142651;-61
2023/01/27 21:30:54;;;;;;;29.20;18.20;;;;;;;-1.02;96.13;100146.11;449355;1252;143255;-61
2023/01/27 21:41:07;;;;;;;18.90;11.60;;;;;;;-1.10;96.36;100141.02;450222;1251;143633;-61
2023/01/27 21:51:12;;;;;;;32.70;20.10;;;;;;;-1.11;96.49;100142.39;450147;1252;142215;-59
2023/01/27 22:01:18;;;;;;;29.20;18.80;;;;;;;-1.12;96.55;100138.45;449396;1251;143108;-61
2023/01/27 22:11:24;;;;;;;27.30;17.70;;;;;;;-1.09;96.69;100140.83;450255;1251;144134;-60
2023/01/27 22:21:30;;;;;;;24.90;16.60;;;;;;;-1.09;96.59;100133.79;449472;1251;145896;-60
2023/01/27 22:31:38;;;;;;;27.10;17.70;;;;;;;-1.09;96.53;100126.57;450176;1251;142761;-61
2023/01/27 22:41:45;;;;;;;26.10;18.30;;;;;;;-1.16;96.74;100129.54;450272;1251;145343;-60
2023/01/27 22:51:51;;;;;;;25.70;18.10;;;;;;;-1.16;96.67;100126.45;449435;1252;142776;-60
2023/01/27 23:01:57;;;;;;;29.50;19.30;;;;;;;-1.15;96.87;100123.86;450210;1253;146858;-62
2023/01/27 23:12:03;;;;;;;24.90;16.40;;;;;;;-1.14;96.91;100118.54;445672;1251;145329;-61
2023/01/27 23:22:09;;;;;;;24.00;15.90;;;;;;;-1.17;96.95;100117.85;449413;1251;143658;-60
2023/01/27 23:32:15;;;;;;;26.30;18.10;;;;;;;-1.14;97.07;100113.36;447188;1251;145479;-62
2023/01/27 23:42:21;;;;;;;27.70;18.00;;;;;;;-1.13;97.13;100110.97;449171;1251;143122;-61
2023/01/27 23:52:28;;;;;;;25.40;17.30;;;;;;;-1.13;97.62;100113.03;435957;1251;197912;-61
